Terminal Aerodrome Forecast
Issued by NWS

Home | Current Version | Previous Version | Text Only | Print | Product List | Glossary Off
Versions: 1 2 3 4 5 6 7 8 9 10 11 12 13 14 15 16 17 18

000
FTUS41 KCLE 210341 AAA
TAFFDY
TAF AMD
KFDY 210341Z 2104/2124 13010KT P6SM BKN150
     FM210500 14010KT 6SM -SHRA VCTS BKN050CB
      TEMPO 2106/2110 3SM -TSRA OVC025CB
     FM211400 19012KT P6SM BKN025
     FM211600 21015G22KT P6SM BKN035
     FM212000 23015G25KT P6SM VCTS BKN035CB=

USA.gov is the U.S. government's official web portal to all federal, state and local government web resources and services.